sensor_id;sensor_type;location;lat;lon;timestamp;temperature;humidity
55004;DHT22;40900;52.710;6.438;2022-10-16T10:27:42;21.10;99.90
55004;DHT22;40900;52.710;6.438;2022-10-16T10:30:18;20.20;99.90
55004;DHT22;40900;52.710;6.438;2022-10-16T10:43:43;20.30;99.90
55004;DHT22;40900;52.710;6.438;2022-10-16T10:46:41;21.20;99.90
55004;DHT22;40900;52.710;6.438;2022-10-16T10:49:27;21.00;99.90
55004;DHT22;40900;52.710;6.438;2022-10-16T10:54:41;21.50;99.90
55004;DHT22;40900;52.710;6.438;2022-10-16T11:00:28;21.50;99.90
55004;DHT22;40900;52.710;6.438;2022-10-16T11:05:56;20.80;99.90
55004;DHT22;40900;52.710;6.438;2022-10-16T11:08:36;20.90;99.90
55004;DHT22;40900;52.710;6.438;2022-10-16T11:11:32;20.20;99.90
55004;DHT22;40900;52.710;6.438;2022-10-16T11:16:45;19.50;99.90
55004;DHT22;40900;52.710;6.438;2022-10-16T11:22:16;18.90;99.90
55004;DHT22;40900;52.710;6.438;2022-10-16T11:24:53;18.60;99.90
55004;DHT22;40900;52.710;6.438;2022-10-16T11:27:35;18.90;99.90
55004;DHT22;40900;52.710;6.438;2022-10-16T11:30:05;18.60;99.90
55004;DHT22;40900;52.710;6.438;2022-10-16T11:32:54;18.80;99.90
55004;DHT22;40900;52.710;6.438;2022-10-16T11:35:37;18.50;99.90
55004;DHT22;40900;52.710;6.438;2022-10-16T11:38:13;18.50;99.90
55004;DHT22;40900;52.710;6.438;2022-10-16T11:40:41;18.60;99.90
55004;DHT22;40900;52.710;6.438;2022-10-16T11:43:15;18.50;99.90
55004;DHT22;40900;52.710;6.438;2022-10-16T11:45:46;18.30;99.90
55004;DHT22;40900;52.710;6.438;2022-10-16T11:48:23;18.30;99.90
55004;DHT22;40900;52.710;6.438;2022-10-16T11:51:01;18.30;99.90
55004;DHT22;40900;52.710;6.438;2022-10-16T11:54:16;17.90;99.90
55004;DHT22;40900;52.710;6.438;2022-10-16T11:56:41;17.90;99.90
55004;DHT22;40900;52.710;6.438;2022-10-16T11:59:35;17.90;99.90
55004;DHT22;40900;52.710;6.438;2022-10-16T12:07:36;17.80;99.90
55004;DHT22;40900;52.710;6.438;2022-10-16T12:10:23;17.90;99.90
55004;DHT22;40900;52.710;6.438;2022-10-16T12:12:49;18.00;99.90
55004;DHT22;40900;52.710;6.438;2022-10-16T12:15:25;18.00;99.90
55004;DHT22;40900;52.710;6.438;2022-10-16T12:17:51;18.00;99.90
55004;DHT22;40900;52.710;6.438;2022-10-16T12:22:55;17.80;99.90
55004;DHT22;40900;52.710;6.438;2022-10-16T12:25:35;17.60;99.90
55004;DHT22;40900;52.710;6.438;2022-10-16T12:30:42;17.50;99.90
55004;DHT22;40900;52.710;6.438;2022-10-16T12:33:28;17.60;99.90
55004;DHT22;40900;52.710;6.438;2022-10-16T12:35:55;17.80;99.90
55004;DHT22;40900;52.710;6.438;2022-10-16T12:38:25;17.90;99.90
55004;DHT22;40900;52.710;6.438;2022-10-16T12:41:24;18.10;99.90
55004;DHT22;40900;52.710;6.438;2022-10-16T12:43:51;18.30;99.90
55004;DHT22;40900;52.710;6.438;2022-10-16T12:48:44;18.40;99.90
55004;DHT22;40900;52.710;6.438;2022-10-16T12:51:25;18.20;99.90
55004;DHT22;40900;52.710;6.438;2022-10-16T12:54:12;18.10;99.90
55004;DHT22;40900;52.710;6.438;2022-10-16T13:10:41;17.80;99.90
55004;DHT22;40900;52.710;6.438;2022-10-16T13:13:22;17.90;99.90
55004;DHT22;40900;52.710;6.438;2022-10-16T13:21:33;17.50;99.90
55004;DHT22;40900;52.710;6.438;2022-10-16T13:29:41;17.80;99.90
55004;DHT22;40900;52.710;6.438;2022-10-16T13:32:10;17.80;99.90
55004;DHT22;40900;52.710;6.438;2022-10-16T13:34:46;17.90;99.90
55004;DHT22;40900;52.710;6.438;2022-10-16T13:37:20;17.80;99.90
55004;DHT22;40900;52.710;6.438;2022-10-16T13:39:47;17.70;99.90
55004;DHT22;40900;52.710;6.438;2022-10-16T13:42:20;17.70;99.90
55004;DHT22;40900;52.710;6.438;2022-10-16T13:44:53;17.80;99.90
55004;DHT22;40900;52.710;6.438;2022-10-16T13:47:24;17.90;99.90
55004;DHT22;40900;52.710;6.438;2022-10-16T13:50:06;17.90;99.90
55004;DHT22;40900;52.710;6.438;2022-10-16T13:52:32;17.90;99.90
55004;DHT22;40900;52.710;6.438;2022-10-16T13:54:58;17.80;99.90
55004;DHT22;40900;52.710;6.438;2022-10-16T13:57:24;17.70;99.90
55004;DHT22;40900;52.710;6.438;2022-10-16T13:59:51;17.70;99.90
55004;DHT22;40900;52.710;6.438;2022-10-16T14:02:35;17.60;99.90
55004;DHT22;40900;52.710;6.438;2022-10-16T14:05:04;17.50;99.90
55004;DHT22;40900;52.710;6.438;2022-10-16T14:07:34;17.50;99.90
55004;DHT22;40900;52.710;6.438;2022-10-16T14:10:05;17.40;99.90
55004;DHT22;40900;52.710;6.438;2022-10-16T14:12:33;17.40;99.90
55004;DHT22;40900;52.710;6.438;2022-10-16T14:15:00;17.50;99.90
55004;DHT22;40900;52.710;6.438;2022-10-16T14:17:28;17.50;99.90
55004;DHT22;40900;52.710;6.438;2022-10-16T14:19:57;17.50;99.90
55004;DHT22;40900;52.710;6.438;2022-10-16T14:22:39;17.50;99.90
55004;DHT22;40900;52.710;6.438;2022-10-16T14:28:16;17.50;99.90
55004;DHT22;40900;52.710;6.438;2022-10-16T14:36:11;17.50;99.90
55004;DHT22;40900;52.710;6.438;2022-10-16T14:38:43;17.40;99.90
55004;DHT22;40900;52.710;6.438;2022-10-16T14:41:13;17.50;99.90
55004;DHT22;40900;52.710;6.438;2022-10-16T14:43:41;17.40;99.90
55004;DHT22;40900;52.710;6.438;2022-10-16T14:46:23;17.40;99.90
55004;DHT22;40900;52.710;6.438;2022-10-16T14:49:19;17.30;99.90
55004;DHT22;40900;52.710;6.438;2022-10-16T14:51:45;17.30;99.90
55004;DHT22;40900;52.710;6.438;2022-10-16T14:54:12;17.20;99.90
55004;DHT22;40900;52.710;6.438;2022-10-16T14:56:52;17.20;99.90
55004;DHT22;40900;52.710;6.438;2022-10-16T14:59:34;17.30;99.90
55004;DHT22;40900;52.710;6.438;2022-10-16T15:04:41;17.30;99.90
55004;DHT22;40900;52.710;6.438;2022-10-16T15:07:08;17.30;99.90
55004;DHT22;40900;52.710;6.438;2022-10-16T15:09:33;17.30;99.90
55004;DHT22;40900;52.710;6.438;2022-10-16T15:11:59;17.30;99.90
55004;DHT22;40900;52.710;6.438;2022-10-16T15:14:25;17.30;99.90
55004;DHT22;40900;52.710;6.438;2022-10-16T15:16:51;17.20;99.90
55004;DHT22;40900;52.710;6.438;2022-10-16T15:19:16;17.20;99.90
55004;DHT22;40900;52.710;6.438;2022-10-16T15:21:42;17.20;99.90
55004;DHT22;40900;52.710;6.438;2022-10-16T15:24:12;17.10;99.90
55004;DHT22;40900;52.710;6.438;2022-10-16T15:26:38;17.10;99.90
55004;DHT22;40900;52.710;6.438;2022-10-16T15:29:04;17.10;99.90
55004;DHT22;40900;52.710;6.438;2022-10-16T15:31:31;17.10;99.90
55004;DHT22;40900;52.710;6.438;2022-10-16T15:33:57;17.10;99.90
55004;DHT22;40900;52.710;6.438;2022-10-16T15:36:33;17.10;99.90
55004;DHT22;40900;52.710;6.438;2022-10-16T15:39:06;17.10;99.90
55004;DHT22;40900;52.710;6.438;2022-10-16T15:41:37;17.10;99.90
55004;DHT22;40900;52.710;6.438;2022-10-16T15:44:03;17.10;99.90
55004;DHT22;40900;52.710;6.438;2022-10-16T15:46:29;17.00;99.90
55004;DHT22;40900;52.710;6.438;2022-10-16T15:48:57;17.00;99.90
55004;DHT22;40900;52.710;6.438;2022-10-16T15:51:25;17.00;99.90
55004;DHT22;40900;52.710;6.438;2022-10-16T15:53:55;16.90;99.90
55004;DHT22;40900;52.710;6.438;2022-10-16T15:56:22;16.90;99.90
55004;DHT22;40900;52.710;6.438;2022-10-16T15:58:48;16.80;99.90
55004;DHT22;40900;52.710;6.438;2022-10-16T16:01:14;16.90;99.90
55004;DHT22;40900;52.710;6.438;2022-10-16T16:03:39;16.80;99.90
55004;DHT22;40900;52.710;6.438;2022-10-16T16:06:10;16.80;99.90
55004;DHT22;40900;52.710;6.438;2022-10-16T16:08:37;16.80;99.90
55004;DHT22;40900;52.710;6.438;2022-10-16T16:11:09;16.80;99.90
55004;DHT22;40900;52.710;6.438;2022-10-16T16:13:36;16.70;99.90
55004;DHT22;40900;52.710;6.438;2022-10-16T16:16:08;16.60;99.90
55004;DHT22;40900;52.710;6.438;2022-10-16T16:18:34;16.60;99.90
55004;DHT22;40900;52.710;6.438;2022-10-16T16:21:00;16.60;99.90
55004;DHT22;40900;52.710;6.438;2022-10-16T16:23:25;16.60;99.90
55004;DHT22;40900;52.710;6.438;2022-10-16T16:28:37;16.50;99.90
55004;DHT22;40900;52.710;6.438;2022-10-16T16:31:04;16.50;99.90
55004;DHT22;40900;52.710;6.438;2022-10-16T16:33:29;16.40;99.90
55004;DHT22;40900;52.710;6.438;2022-10-16T16:36:01;16.40;99.90
55004;DHT22;40900;52.710;6.438;2022-10-16T16:38:27;16.40;99.90
55004;DHT22;40900;52.710;6.438;2022-10-16T16:40:54;16.30;99.90
55004;DHT22;40900;52.710;6.438;2022-10-16T16:43:23;16.30;99.90
55004;DHT22;40900;52.710;6.438;2022-10-16T16:45:49;16.20;99.90
55004;DHT22;40900;52.710;6.438;2022-10-16T16:48:14;16.20;99.90
55004;DHT22;40900;52.710;6.438;2022-10-16T16:50:40;16.20;99.90
55004;DHT22;40900;52.710;6.438;2022-10-16T16:53:06;16.10;99.90
55004;DHT22;40900;52.710;6.438;2022-10-16T16:55:33;16.10;99.90
55004;DHT22;40900;52.710;6.438;2022-10-16T16:57:58;16.00;99.90
55004;DHT22;40900;52.710;6.438;2022-10-16T17:00:24;16.00;99.90
55004;DHT22;40900;52.710;6.438;2022-10-16T17:02:50;15.90;99.90
55004;DHT22;40900;52.710;6.438;2022-10-16T17:05:17;15.90;99.90
55004;DHT22;40900;52.710;6.438;2022-10-16T17:07:43;15.80;99.90
55004;DHT22;40900;52.710;6.438;2022-10-16T17:10:10;15.80;99.90
55004;DHT22;40900;52.710;6.438;2022-10-16T17:12:36;15.70;99.90
55004;DHT22;40900;52.710;6.438;2022-10-16T17:15:02;15.70;99.90
55004;DHT22;40900;52.710;6.438;2022-10-16T17:17:28;15.70;99.90
55004;DHT22;40900;52.710;6.438;2022-10-16T17:19:54;15.70;99.90
55004;DHT22;40900;52.710;6.438;2022-10-16T17:22:19;15.60;99.90
55004;DHT22;40900;52.710;6.438;2022-10-16T17:24:48;15.60;99.90
55004;DHT22;40900;52.710;6.438;2022-10-16T17:27:17;15.50;99.90
55004;DHT22;40900;52.710;6.438;2022-10-16T17:29:43;15.40;99.90
55004;DHT22;40900;52.710;6.438;2022-10-16T17:32:09;15.40;99.90
55004;DHT22;40900;52.710;6.438;2022-10-16T17:34:36;15.30;99.90
55004;DHT22;40900;52.710;6.438;2022-10-16T17:37:02;15.20;99.90
55004;DHT22;40900;52.710;6.438;2022-10-16T17:39:28;15.20;99.90
55004;DHT22;40900;52.710;6.438;2022-10-16T17:41:54;15.20;99.90
55004;DHT22;40900;52.710;6.438;2022-10-16T17:44:20;15.10;99.90
55004;DHT22;40900;52.710;6.438;2022-10-16T17:46:47;15.10;99.90
55004;DHT22;40900;52.710;6.438;2022-10-16T17:49:14;15.10;99.90
55004;DHT22;40900;52.710;6.438;2022-10-16T17:51:40;15.10;99.90
55004;DHT22;40900;52.710;6.438;2022-10-16T17:54:06;15.00;99.90
55004;DHT22;40900;52.710;6.438;2022-10-16T17:56:32;15.00;99.90
55004;DHT22;40900;52.710;6.438;2022-10-16T17:58:59;14.90;99.90
55004;DHT22;40900;52.710;6.438;2022-10-16T18:01:28;14.90;99.90
55004;DHT22;40900;52.710;6.438;2022-10-16T18:03:57;14.90;99.90
55004;DHT22;40900;52.710;6.438;2022-10-16T18:06:23;14.80;99.90
55004;DHT22;40900;52.710;6.438;2022-10-16T18:08:50;14.80;99.90
55004;DHT22;40900;52.710;6.438;2022-10-16T18:11:15;14.70;99.90
55004;DHT22;40900;52.710;6.438;2022-10-16T18:13:41;14.70;99.90
55004;DHT22;40900;52.710;6.438;2022-10-16T18:16:09;14.70;99.90
55004;DHT22;40900;52.710;6.438;2022-10-16T18:18:36;14.70;99.90
55004;DHT22;40900;52.710;6.438;2022-10-16T18:21:05;14.70;99.90
55004;DHT22;40900;52.710;6.438;2022-10-16T18:23:33;14.70;99.90
55004;DHT22;40900;52.710;6.438;2022-10-16T18:25:59;14.70;99.90
55004;DHT22;40900;52.710;6.438;2022-10-16T18:28:25;14.70;99.90
55004;DHT22;40900;52.710;6.438;2022-10-16T18:31:15;14.70;99.90
55004;DHT22;40900;52.710;6.438;2022-10-16T18:33:41;14.80;99.90
55004;DHT22;40900;52.710;6.438;2022-10-16T18:36:16;14.70;99.90
55004;DHT22;40900;52.710;6.438;2022-10-16T18:38:42;14.70;99.90
55004;DHT22;40900;52.710;6.438;2022-10-16T18:41:08;14.70;99.90
55004;DHT22;40900;52.710;6.438;2022-10-16T18:43:36;14.60;99.90
55004;DHT22;40900;52.710;6.438;2022-10-16T18:46:05;14.60;99.90
55004;DHT22;40900;52.710;6.438;2022-10-16T18:48:32;14.60;99.90
55004;DHT22;40900;52.710;6.438;2022-10-16T18:51:18;14.50;99.90
55004;DHT22;40900;52.710;6.438;2022-10-16T18:53:44;14.50;99.90
55004;DHT22;40900;52.710;6.438;2022-10-16T18:56:11;14.40;99.90
55004;DHT22;40900;52.710;6.438;2022-10-16T18:58:39;14.50;99.90
55004;DHT22;40900;52.710;6.438;2022-10-16T19:01:09;14.40;99.90
55004;DHT22;40900;52.710;6.438;2022-10-16T19:03:35;14.40;99.90
55004;DHT22;40900;52.710;6.438;2022-10-16T19:06:05;14.40;99.90
55004;DHT22;40900;52.710;6.438;2022-10-16T19:08:33;14.40;99.90
55004;DHT22;40900;52.710;6.438;2022-10-16T19:11:07;14.40;99.90
55004;DHT22;40900;52.710;6.438;2022-10-16T19:13:33;14.50;99.90
55004;DHT22;40900;52.710;6.438;2022-10-16T19:15:59;14.50;99.90
55004;DHT22;40900;52.710;6.438;2022-10-16T19:18:27;14.50;99.90
55004;DHT22;40900;52.710;6.438;2022-10-16T19:20:53;14.50;99.90
55004;DHT22;40900;52.710;6.438;2022-10-16T19:23:19;14.40;99.90
55004;DHT22;40900;52.710;6.438;2022-10-16T19:25:45;14.40;99.90
55004;DHT22;40900;52.710;6.438;2022-10-16T19:28:11;14.30;99.90
55004;DHT22;40900;52.710;6.438;2022-10-16T19:30:40;14.40;99.90
55004;DHT22;40900;52.710;6.438;2022-10-16T19:33:07;14.40;99.90
55004;DHT22;40900;52.710;6.438;2022-10-16T19:35:33;14.40;99.90
55004;DHT22;40900;52.710;6.438;2022-10-16T19:37:59;14.40;99.90
55004;DHT22;40900;52.710;6.438;2022-10-16T19:40:25;14.40;99.90
55004;DHT22;40900;52.710;6.438;2022-10-16T19:42:51;14.40;99.90
55004;DHT22;40900;52.710;6.438;2022-10-16T19:45:17;14.40;99.90
55004;DHT22;40900;52.710;6.438;2022-10-16T19:47:43;14.40;99.90
55004;DHT22;40900;52.710;6.438;2022-10-16T19:50:10;14.40;99.90
55004;DHT22;40900;52.710;6.438;2022-10-16T19:52:37;14.30;99.90
55004;DHT22;40900;52.710;6.438;2022-10-16T19:55:06;14.30;99.90
55004;DHT22;40900;52.710;6.438;2022-10-16T19:57:33;14.30;99.90
55004;DHT22;40900;52.710;6.438;2022-10-16T19:59:59;14.30;99.90
55004;DHT22;40900;52.710;6.438;2022-10-16T20:02:25;14.30;99.90
55004;DHT22;40900;52.710;6.438;2022-10-16T20:04:51;14.30;99.90
55004;DHT22;40900;52.710;6.438;2022-10-16T20:07:16;14.30;99.90
55004;DHT22;40900;52.710;6.438;2022-10-16T20:09:42;14.30;99.90
55004;DHT22;40900;52.710;6.438;2022-10-16T20:12:08;14.30;99.90
55004;DHT22;40900;52.710;6.438;2022-10-16T20:14:34;14.30;99.90
55004;DHT22;40900;52.710;6.438;2022-10-16T20:17:00;14.40;99.90
55004;DHT22;40900;52.710;6.438;2022-10-16T20:19:26;14.40;99.90
55004;DHT22;40900;52.710;6.438;2022-10-16T20:21:52;14.40;99.90
55004;DHT22;40900;52.710;6.438;2022-10-16T20:24:18;14.40;99.90
55004;DHT22;40900;52.710;6.438;2022-10-16T20:26:44;14.40;99.90
55004;DHT22;40900;52.710;6.438;2022-10-16T20:29:09;14.40;99.90
55004;DHT22;40900;52.710;6.438;2022-10-16T20:31:35;14.40;99.90
55004;DHT22;40900;52.710;6.438;2022-10-16T20:34:04;14.40;99.90
55004;DHT22;40900;52.710;6.438;2022-10-16T20:36:30;14.40;99.90
55004;DHT22;40900;52.710;6.438;2022-10-16T20:38:58;14.40;99.90
55004;DHT22;40900;52.710;6.438;2022-10-16T20:41:24;14.40;99.90
55004;DHT22;40900;52.710;6.438;2022-10-16T20:43:50;14.40;99.90
55004;DHT22;40900;52.710;6.438;2022-10-16T20:46:23;14.40;99.90
55004;DHT22;40900;52.710;6.438;2022-10-16T20:48:50;14.40;99.90
55004;DHT22;40900;52.710;6.438;2022-10-16T20:51:19;14.40;99.90
55004;DHT22;40900;52.710;6.438;2022-10-16T20:53:46;14.30;99.90
55004;DHT22;40900;52.710;6.438;2022-10-16T20:56:13;14.30;99.90
55004;DHT22;40900;52.710;6.438;2022-10-16T20:58:40;14.30;99.90
55004;DHT22;40900;52.710;6.438;2022-10-16T21:01:17;14.30;99.90
55004;DHT22;40900;52.710;6.438;2022-10-16T21:03:49;14.30;99.90
55004;DHT22;40900;52.710;6.438;2022-10-16T21:06:15;14.30;99.90
55004;DHT22;40900;52.710;6.438;2022-10-16T21:08:41;14.20;99.90
55004;DHT22;40900;52.710;6.438;2022-10-16T21:11:24;14.20;99.90
55004;DHT22;40900;52.710;6.438;2022-10-16T21:13:53;14.10;99.90
55004;DHT22;40900;52.710;6.438;2022-10-16T21:16:20;14.00;99.90
55004;DHT22;40900;52.710;6.438;2022-10-16T21:18:47;14.10;99.90
55004;DHT22;40900;52.710;6.438;2022-10-16T21:21:22;14.00;99.90
55004;DHT22;40900;52.710;6.438;2022-10-16T21:23:49;14.00;99.90
55004;DHT22;40900;52.710;6.438;2022-10-16T21:26:16;14.00;99.90
55004;DHT22;40900;52.710;6.438;2022-10-16T21:28:43;13.90;99.90
55004;DHT22;40900;52.710;6.438;2022-10-16T21:31:17;13.90;99.90
55004;DHT22;40900;52.710;6.438;2022-10-16T21:33:47;13.90;99.90
55004;DHT22;40900;52.710;6.438;2022-10-16T21:36:17;13.90;99.90
55004;DHT22;40900;52.710;6.438;2022-10-16T21:38:44;13.90;99.90
55004;DHT22;40900;52.710;6.438;2022-10-16T21:41:15;13.90;99.90
55004;DHT22;40900;52.710;6.438;2022-10-16T21:43:41;13.90;99.90
55004;DHT22;40900;52.710;6.438;2022-10-16T21:46:06;13.90;99.90
55004;DHT22;40900;52.710;6.438;2022-10-16T21:48:32;13.90;99.90
55004;DHT22;40900;52.710;6.438;2022-10-16T21:50:58;13.90;99.90
55004;DHT22;40900;52.710;6.438;2022-10-16T21:53:23;13.90;99.90
55004;DHT22;40900;52.710;6.438;2022-10-16T21:55:49;13.90;99.90
55004;DHT22;40900;52.710;6.438;2022-10-16T21:58:15;13.90;99.90
55004;DHT22;40900;52.710;6.438;2022-10-16T22:00:41;13.90;99.90
55004;DHT22;40900;52.710;6.438;2022-10-16T22:03:06;13.90;99.90
55004;DHT22;40900;52.710;6.438;2022-10-16T22:05:35;13.90;99.90
55004;DHT22;40900;52.710;6.438;2022-10-16T22:08:00;13.80;99.90
55004;DHT22;40900;52.710;6.438;2022-10-16T22:10:26;13.90;99.90
55004;DHT22;40900;52.710;6.438;2022-10-16T22:12:52;13.90;99.90
55004;DHT22;40900;52.710;6.438;2022-10-16T22:15:18;13.90;99.90
55004;DHT22;40900;52.710;6.438;2022-10-16T22:17:43;13.80;99.90
55004;DHT22;40900;52.710;6.438;2022-10-16T22:20:10;13.80;99.90
55004;DHT22;40900;52.710;6.438;2022-10-16T22:22:35;13.80;99.90
55004;DHT22;40900;52.710;6.438;2022-10-16T22:25:02;13.80;99.90
55004;DHT22;40900;52.710;6.438;2022-10-16T22:27:27;13.80;99.90
55004;DHT22;40900;52.710;6.438;2022-10-16T22:29:53;13.80;99.90
55004;DHT22;40900;52.710;6.438;2022-10-16T22:32:19;13.80;99.90
55004;DHT22;40900;52.710;6.438;2022-10-16T22:34:45;13.80;99.90
55004;DHT22;40900;52.710;6.438;2022-10-16T22:37:11;13.80;99.90
55004;DHT22;40900;52.710;6.438;2022-10-16T22:39:37;13.80;99.90
55004;DHT22;40900;52.710;6.438;2022-10-16T22:42:02;13.80;99.90
55004;DHT22;40900;52.710;6.438;2022-10-16T22:44:29;13.80;99.90
55004;DHT22;40900;52.710;6.438;2022-10-16T22:46:55;13.80;99.90
55004;DHT22;40900;52.710;6.438;2022-10-16T22:49:21;13.80;99.90
55004;DHT22;40900;52.710;6.438;2022-10-16T22:51:47;13.80;99.90
55004;DHT22;40900;52.710;6.438;2022-10-16T22:54:13;13.80;99.90
55004;DHT22;40900;52.710;6.438;2022-10-16T22:56:39;13.90;99.90
55004;DHT22;40900;52.710;6.438;2022-10-16T22:59:05;13.90;99.90
55004;DHT22;40900;52.710;6.438;2022-10-16T23:01:34;13.90;99.90
55004;DHT22;40900;52.710;6.438;2022-10-16T23:04:00;13.90;99.90
55004;DHT22;40900;52.710;6.438;2022-10-16T23:06:26;13.90;99.90
55004;DHT22;40900;52.710;6.438;2022-10-16T23:08:57;13.90;99.90
55004;DHT22;40900;52.710;6.438;2022-10-16T23:11:24;13.90;99.90
55004;DHT22;40900;52.710;6.438;2022-10-16T23:13:50;14.00;99.90
55004;DHT22;40900;52.710;6.438;2022-10-16T23:16:17;14.00;99.90
55004;DHT22;40900;52.710;6.438;2022-10-16T23:18:44;14.00;99.90
55004;DHT22;40900;52.710;6.438;2022-10-16T23:21:13;14.00;99.90
55004;DHT22;40900;52.710;6.438;2022-10-16T23:23:40;14.00;99.90
55004;DHT22;40900;52.710;6.438;2022-10-16T23:26:25;14.10;99.90
55004;DHT22;40900;52.710;6.438;2022-10-16T23:28:51;14.10;99.90
55004;DHT22;40900;52.710;6.438;2022-10-16T23:31:17;14.10;99.90
55004;DHT22;40900;52.710;6.438;2022-10-16T23:33:43;14.20;99.90
55004;DHT22;40900;52.710;6.438;2022-10-16T23:36:12;14.20;99.90
55004;DHT22;40900;52.710;6.438;2022-10-16T23:38:38;14.20;99.90
55004;DHT22;40900;52.710;6.438;2022-10-16T23:41:04;14.20;99.90
55004;DHT22;40900;52.710;6.438;2022-10-16T23:43:30;14.20;99.90
55004;DHT22;40900;52.710;6.438;2022-10-16T23:45:56;14.20;99.90
55004;DHT22;40900;52.710;6.438;2022-10-16T23:48:22;14.20;99.90
55004;DHT22;40900;52.710;6.438;2022-10-16T23:50:48;14.10;99.90
55004;DHT22;40900;52.710;6.438;2022-10-16T23:53:14;14.10;99.90
55004;DHT22;40900;52.710;6.438;2022-10-16T23:55:41;14.10;99.90
55004;DHT22;40900;52.710;6.438;2022-10-16T23:58:06;14.10;99.90
